x

West Moresby (46208) Wave Buoy

11:00am - Wed 1st Oct 2014 All times are PDT. -7 hours from GMT.

  • Sig Wave height 8.5ft
  • Peak Period 11s
  • Wind
    9mph, 13mph gusts
  • Sea Temp 58°f
  • Air Temp 56°f
  • Sea Pressure 1022.4mb
  • West Moresby
  • West Moresby

More Historic Weather Station data

Upgrade to MSW Pro to gain access to the past 30 days of data for over 8000 Wavebouys and Weather Stations around the globe.

Join Pro

Comparision Forecast

View Surf forecast
   
Wed 10/01 11:00am 8.5ft 11s 9 13 mph 1022.4mb 58f 56f
10:00am 8ft 11s 9 13 mph 1022.3mb 58f 56f
9:00am 8ft 11s 9 13 mph 1021.9mb 58f 56f
8:00am 7.5ft 11s 9 13 mph 1021.7mb 58f 56f
7:00am 7ft 11s 13 16 mph 1021.8mb 58f 56f
6:00am 7.5ft 11s 11 18 mph 1021.8mb 58f 56f
5:00am 7ft 10s 13 18 mph 1021.6mb 58f 56f
4:00am 7ft 9s 13 18 mph 1021.5mb 58f 56f
3:00am 7ft 10s 13 16 mph 1021.5mb 58f 56f
2:00am 7ft 9s 16 18 mph 1021.6mb 58f 57f
1:00am 7ft 10s 16 18 mph 1021.4mb 58f 57f
12:00am 7ft 10s 13 16 mph 1021.2mb 58f 57f
Tue 09/30 11:00pm 7.5ft 9s 13 16 mph 1021.3mb 58f 57f
10:00pm 7.5ft 10s 18 22 mph 1020.9mb 58f 58f
9:00pm 7.5ft 10s 18 22 mph 1020.8mb 58f 58f
8:00pm 6.5ft 9s 16 18 mph 1020.8mb 59f 58f
7:00pm 7ft 10s 18 20 mph 1020.6mb 59f 58f
6:00pm 7ft 8s 16 20 mph 1020.4mb 59f 58f
5:00pm 7ft 8s 18 20 mph 1020.3mb 59f 58f
3:00pm 7ft 10s 16 18 mph 1020.4mb 59f 58f
2:00pm 6ft 9s 18 20 mph 1020.2mb 59f 58f
1:00pm 7ft 9s 16 20 mph 1019.8mb 59f 58f
12:00pm 7.5ft 10s 16 18 mph 1019.7mb 59f 58f
11:00am 8ft 10s 18 22 mph 1019.1mb 59f 58f
10:00am 7.5ft 8s 18 22 mph 1018.5mb 59f 58f
9:00am 8ft 9s 18 22 mph 1017.9mb 59f 58f
7:00am 9ft 9s 16 20 mph 1016.8mb 59f 58f
6:00am 8.5ft 10s 16 20 mph 1016.3mb 59f 58f
5:00am 9.5ft 11s 18 22 mph 1015.8mb 59f 58f
4:00am 10.5ft 10s 20 22 mph 1015.3mb 59f 58f
3:00am 11ft 10s 20 27 mph 1014.6mb 59f 58f
2:00am 11ft 10s 20
mph
1014.2mb 59f 57f
1:00am 12ft 10s 20 25 mph 1013.6mb 59f 58f
12:00am 12ft 10s 25 29 mph 1012.8mb 59f 58f
Mon 09/29 11:00pm 11ft 9s 22 29 mph 1012.1mb 59f 58f
10:00pm 13ft 10s 22 29 mph 1011.4mb 59f 58f
9:00pm 12.5ft 11s 27 40 mph 1010.5mb 59f 56f
8:00pm 13ft 10s 22 27 mph 1009.6mb 59f 58f
7:00pm 13.5ft 11s 27 31 mph 1008.6mb 59f 58f
6:00pm 12.5ft 11s 27 31 mph 1007.7mb 59f 59f
5:00pm 12.5ft 10s 29 36 mph 1006.8mb 59f 59f
4:00pm 12.5ft 11s 25 31 mph 1006.4mb 59f 59f
3:00pm 11ft 10s 25 31 mph 1006.1mb 59f 57f
2:00pm 10.5ft 10s 27 34 mph 1005.7mb 59f 58f
1:00pm 10ft 11s 22 27 mph 1005.8mb 59f 58f
12:00pm 9.5ft 11s 20 27 mph 1005.6mb 59f 57f
11:00am 10ft 10s 11 13 mph 1005.5mb 59f 57f
10:00am 10ft 10s 20 27 mph 1005.1mb 59f 56f
9:00am 10ft 9s 20 25 mph 1004.9mb 59f 57f
8:00am 9.5ft 9s 22 27 mph 1004.9mb 59f 58f
7:00am 10ft 9s 16 20 mph 1005.3mb 59f 58f
6:00am 9ft 11s 18 20 mph 1005.6mb 59f 57f
5:00am 9.5ft 10s 20 29 mph 1005.9mb 59f 58f
4:00am 9ft 10s 18 22 mph 1006.1mb 59f 59f
3:00am 9ft 10s 18 22 mph 1006.6mb 59f 58f
2:00am 8.5ft 12s 18 20 mph 1007.1mb 59f 59f
1:00am 8.5ft 12s 18 20 mph 1007.3mb 59f 59f
12:00am 8ft 10s 18 22 mph 1007.6mb 59f 59f
Sun 09/28 11:00pm 9ft 10s 16 20 mph 1007.6mb 59f 59f
10:00pm 8.5ft 10s 16 20 mph 1007.6mb 59f 59f
9:00pm 9ft 8s 13 18 mph 1007.5mb 59f 59f
8:00pm 9.5ft 9s 16 20 mph 1007.2mb 60f 60f
7:00pm 10ft 10s 18 20 mph 1007mb 60f 60f
6:00pm 10ft 10s 13 20 mph 1006.7mb 60f 59f
5:00pm 10.5ft 10s 16 20 mph 1006.7mb 60f 59f
4:00pm 11ft 10s 16 18 mph 1006.3mb 60f 57f
3:00pm 10ft 10s 11 16 mph 1006.1mb 60f 56f
2:00pm 11ft 9s 13 18 mph 1005.7mb 60f 55f
1:00pm 10.5ft 10s 18 22 mph 1005mb 60f 59f
12:00pm 11ft 10s 16 20 mph 1005.3mb 60f 59f
11:00am 11ft 10s 13 16 mph 1005.3mb 60f 59f
10:00am 12ft 7s 16 20 mph 1005.5mb 60f 60f
9:00am 11.5ft 9s 25 31 mph 1005.3mb 60f 61f
8:00am 11ft 9s 27 31 mph 1005.9mb 60f 61f
7:00am 10ft 9s 29 36 mph 1005.7mb 60f 61f
6:00am 10ft 8s 25 29 mph 1006.3mb 60f 60f
5:00am 10ft 8s 22 27 mph 1007.1mb 60f 61f
4:00am 10ft 8s 25 29 mph 1007.6mb 60f 61f
3:00am 10ft 7s 25 29 mph 1007.8mb 60f 61f
2:00am 9.5ft 7s 27 31 mph 1008mb 60f 61f
1:00am 9ft 6s 27 31 mph 1007.8mb 60f 61f
12:00am 8ft 7s 27 34 mph 1008.1mb 60f 60f
Sat 09/27 11:00pm 8ft 7s 27 31 mph 1008.5mb 60f 60f
10:00pm 7.5ft 7s 27 34 mph 1009.2mb 60f 60f
9:00pm 7ft 6s 27 31 mph 1009.5mb 60f 60f
8:00pm 7ft 6s 22 29 mph 1009.7mb 60f 60f